Time;durP1;ratioP1;P1;durP2;ratioP2;P2;SDS_P1;SDS_P2;PMS_P1;PMS_P2;Temp;Humidity;BMP_temperature;BMP_pressure;BME280_temperature;BME280_humidity;BME280_pressure;Samples;Min_cycle;Max_cycle;Signal;HPM_P1;HPM_P2
2023/03/11 00:00:32;;;;;;;0.30;0.20;;;;;;;3.69;73.82;99235.00;4998775;28;20502;-49
2023/03/11 00:03:01;;;;;;;0.77;0.77;;;;;;;3.75;73.81;99227.03;5005008;28;21019;-49
2023/03/11 00:05:30;;;;;;;0.20;0.20;;;;;;;3.60;74.14;99240.44;4998607;28;20448;-49
2023/03/11 00:07:57;;;;;;;0.30;0.20;;;;;;;3.67;75.17;99244.69;5002069;28;20487;-49
2023/03/11 00:10:29;;;;;;;0.20;0.10;;;;;;;3.62;75.49;99228.16;5005185;28;20466;-49
2023/03/11 00:12:57;;;;;;;0.20;0.20;;;;;;;3.71;75.94;99249.03;4998770;28;21041;-50
2023/03/11 00:15:25;;;;;;;0.20;0.20;;;;;;;3.59;76.37;99228.22;5003430;28;20499;-49
2023/03/11 00:17:51;;;;;;;1.73;1.13;;;;;;;3.50;77.24;99249.38;5003625;28;20452;-49
2023/03/11 00:20:30;;;;;;;0.30;0.20;;;;;;;3.59;77.73;99246.59;4993569;28;20496;-49
2023/03/11 00:22:57;;;;;;;0.20;0.10;;;;;;;3.77;78.11;99248.91;5004828;28;20836;-49
2023/03/11 00:25:27;;;;;;;0.30;0.20;;;;;;;3.77;77.62;99250.66;4998663;28;20448;-49
2023/03/11 00:27:54;;;;;;;0.30;0.20;;;;;;;3.69;78.07;99263.06;4998526;28;20978;-49
2023/03/11 00:30:22;;;;;;;0.30;0.20;;;;;;;3.75;79.28;99253.31;5004462;28;20576;-49
2023/03/11 00:32:51;;;;;;;0.77;0.67;;;;;;;3.69;79.13;99263.06;5004820;28;20475;-49
2023/03/11 00:35:22;;;;;;;0.30;0.20;;;;;;;3.67;78.56;99268.34;4987735;28;20853;-49
2023/03/11 00:37:53;;;;;;;0.40;0.30;;;;;;;3.80;78.41;99271.63;4988152;28;20445;-49
2023/03/11 00:40:20;;;;;;;7.63;1.70;;;;;;;3.83;78.73;99269.78;5002422;28;20519;-49
2023/03/11 00:42:47;;;;;;;0.20;0.10;;;;;;;3.76;78.71;99273.44;5000914;28;20514;-50
2023/03/11 00:45:13;;;;;;;0.20;0.20;;;;;;;3.67;78.74;99264.84;5002596;28;20458;-49
2023/03/11 00:47:44;;;;;;;0.30;0.20;;;;;;;3.67;79.04;99264.84;5001731;28;20454;-49
2023/03/11 00:50:23;;;;;;;2.67;1.03;;;;;;;3.51;79.31;99282.63;5003982;28;20845;-49
2023/03/11 00:52:51;;;;;;;0.20;0.17;;;;;;;3.45;79.10;99278.34;5005119;28;20457;-49
2023/03/11 00:55:21;;;;;;;0.20;0.20;;;;;;;3.58;79.54;99272.91;4997881;28;21065;-49
2023/03/11 00:57:52;;;;;;;0.33;0.33;;;;;;;3.66;78.72;99282.38;5003014;28;20454;-49
2023/03/11 01:00:20;;;;;;;0.20;0.10;;;;;;;3.67;79.18;99294.63;5003273;28;20558;-49
2023/03/11 01:02:46;;;;;;;0.43;0.43;;;;;;;3.63;78.73;99302.59;4998097;28;20450;-48
2023/03/11 01:05:13;;;;;;;0.30;0.30;;;;;;;3.61;79.07;99296.50;5000444;28;20503;-49
2023/03/11 01:07:40;;;;;;;0.20;0.20;;;;;;;3.76;79.37;99298.84;5000629;28;20821;-49
2023/03/11 01:10:08;;;;;;;2.87;0.53;;;;;;;3.60;80.39;99293.00;4996885;28;20521;-49
2023/03/11 01:12:35;;;;;;;4.77;1.07;;;;;;;3.43;79.75;99284.53;5001408;28;20871;-49
2023/03/11 01:15:03;;;;;;;0.37;0.30;;;;;;;3.42;80.82;99272.25;5004140;28;20456;-49
2023/03/11 01:17:29;;;;;;;1.53;0.67;;;;;;;3.48;80.88;99278.31;4994827;28;20472;-49
2023/03/11 01:19:56;;;;;;;10.67;1.43;;;;;;;3.44;81.42;99273.13;5004241;28;20474;-49
2023/03/11 01:22:22;;;;;;;0.20;0.20;;;;;;;3.47;81.27;99271.31;5001454;28;20497;-48
2023/03/11 01:24:49;;;;;;;0.20;0.20;;;;;;;3.70;81.40;99262.16;4996465;28;20448;-49
2023/03/11 01:27:15;;;;;;;0.37;0.37;;;;;;;3.55;80.84;99271.16;5000113;28;20461;-49
2023/03/11 01:29:42;;;;;;;0.20;0.20;;;;;;;3.53;80.62;99279.06;5003939;28;20503;-49
2023/03/11 01:32:09;;;;;;;8.20;1.10;;;;;;;3.49;81.61;99272.16;4995072;28;20453;-49
2023/03/11 01:34:36;;;;;;;0.20;0.10;;;;;;;3.60;80.97;99279.00;4997237;28;20453;-49
2023/03/11 01:37:03;;;;;;;0.20;0.20;;;;;;;3.71;80.30;99282.31;4999863;28;20454;-49
2023/03/11 01:39:29;;;;;;;0.20;0.20;;;;;;;3.64;80.00;99291.19;5003836;28;20457;-49
2023/03/11 01:41:56;;;;;;;0.20;0.20;;;;;;;3.56;80.32;99294.81;5001830;28;20843;-49
2023/03/11 01:44:22;;;;;;;0.53;0.53;;;;;;;3.60;80.34;99300.00;4982078;28;20462;-49
2023/03/11 01:46:51;;;;;;;0.30;0.30;;;;;;;3.62;80.59;99314.84;5003305;28;20662;-49
2023/03/11 01:49:20;;;;;;;0.30;0.30;;;;;;;3.68;80.41;99321.75;5004331;28;20502;-49
2023/03/11 01:51:50;;;;;;;0.73;0.30;;;;;;;3.67;81.16;99331.41;4990576;28;20531;-49
2023/03/11 01:54:27;;;;;;;7.10;1.40;;;;;;;3.61;80.93;99331.50;5003741;28;20452;-49
2023/03/11 01:56:54;;;;;;;0.40;0.40;;;;;;;3.53;81.63;99336.00;5000545;28;20494;-49
2023/03/11 01:59:35;;;;;;;0.30;0.20;;;;;;;3.60;81.04;99328.91;4997003;28;20474;-49
2023/03/11 02:02:10;;;;;;;0.27;0.17;;;;;;;3.65;80.86;99321.81;4998789;28;20492;-50
2023/03/11 02:04:39;;;;;;;0.20;0.10;;;;;;;3.54;80.65;99324.59;5003612;28;20871;-49
2023/03/11 02:07:07;;;;;;;0.30;0.20;;;;;;;3.59;80.32;99321.94;4991470;28;20865;-50
2023/03/11 02:09:33;;;;;;;1.30;1.30;;;;;;;3.65;80.36;99314.81;5002619;28;20464;-49
2023/03/11 02:12:01;;;;;;;0.20;0.10;;;;;;;3.62;79.95;99319.25;4990008;28;20951;-49
2023/03/11 02:14:29;;;;;;;0.30;0.30;;;;;;;3.61;79.67;99310.50;4989036;28;20453;-49
2023/03/11 02:16:56;;;;;;;0.20;0.10;;;;;;;3.62;79.98;99312.22;5003377;28;20448;-49
2023/03/11 02:19:30;;;;;;;42.97;0.80;;;;;;;3.64;79.78;99309.56;5001505;28;20818;-50
2023/03/11 02:21:57;;;;;;;0.33;0.20;;;;;;;3.66;80.06;99313.91;5003401;28;20492;-49
2023/03/11 02:24:45;;;;;;;0.20;0.20;;;;;;;3.76;79.64;99322.50;4999005;28;20458;-49
2023/03/11 02:27:15;;;;;;;0.20;0.10;;;;;;;3.65;80.14;99309.53;4995955;28;20456;-49
2023/03/11 02:29:43;;;;;;;0.33;0.30;;;;;;;3.59;80.74;99311.41;4997815;28;20954;-49
2023/03/11 02:32:10;;;;;;;0.20;0.10;;;;;;;3.57;80.28;99314.06;5003241;28;20456;-49
2023/03/11 02:34:38;;;;;;;12.93;0.87;;;;;;;3.55;80.76;99310.56;5002878;28;20460;-49
2023/03/11 02:37:14;;;;;;;0.20;0.20;;;;;;;3.55;80.29;99319.31;4996626;28;20482;-49
2023/03/11 02:39:48;;;;;;;0.20;0.10;;;;;;;3.42;80.66;99315.16;4995491;28;21039;-49
2023/03/11 02:42:21;;;;;;;0.30;0.27;;;;;;;3.40;80.71;99318.69;5001228;28;20492;-49
2023/03/11 02:44:57;;;;;;;0.57;0.53;;;;;;;3.31;81.07;99330.22;4997491;28;20446;-49
2023/03/11 02:47:24;;;;;;;7.50;0.83;;;;;;;3.36;81.68;99330.16;4985423;28;20878;-49
2023/03/11 02:49:52;;;;;;;0.20;0.10;;;;;;;3.27;82.47;99334.63;4999573;28;20844;-49
2023/03/11 02:52:19;;;;;;;0.30;0.27;;;;;;;3.22;82.51;99339.09;4999296;28;21004;-50
2023/03/11 02:54:46;;;;;;;0.87;0.30;;;;;;;3.14;83.15;99329.59;4999055;28;20450;-50
2023/03/11 02:57:12;;;;;;;0.53;0.53;;;;;;;3.21;83.25;99333.88;5003033;28;20453;-49
2023/03/11 02:59:39;;;;;;;0.63;0.50;;;;;;;3.27;83.89;99334.63;4996098;28;20450;-49
2023/03/11 03:02:05;;;;;;;0.20;0.10;;;;;;;3.34;83.57;99334.56;5002990;28;20888;-49
2023/03/11 03:04:31;;;;;;;0.30;0.23;;;;;;;3.33;82.97;99335.47;5000530;28;20539;-49
2023/03/11 03:06:58;;;;;;;0.40;0.23;;;;;;;3.31;82.66;99340.75;4995410;28;20484;-49
2023/03/11 03:09:25;;;;;;;0.30;0.20;;;;;;;3.25;83.88;99346.06;4999018;28;20548;-49
2023/03/11 03:11:51;;;;;;;1.37;1.30;;;;;;;3.31;83.12;99353.88;5002715;28;20870;-48
2023/03/11 03:14:17;;;;;;;0.20;0.20;;;;;;;3.33;83.80;99353.84;5000286;28;20883;-49
2023/03/11 03:16:44;;;;;;;0.73;0.73;;;;;;;3.25;83.51;99346.06;4996230;28;20449;-49
2023/03/11 03:19:10;;;;;;;0.20;0.20;;;;;;;3.18;83.58;99355.81;4998776;28;20457;-48
2023/03/11 03:21:37;;;;;;;2.20;1.23;;;;;;;3.23;83.86;99361.84;4999879;28;20492;-49
2023/03/11 03:24:03;;;;;;;0.30;0.20;;;;;;;3.31;84.42;99360.88;5001752;28;20469;-49
2023/03/11 03:26:30;;;;;;;0.30;0.20;;;;;;;3.27;84.40;99360.03;5003186;28;20456;-49
2023/03/11 03:28:56;;;;;;;0.70;0.40;;;;;;;3.34;84.68;99364.31;5002250;28;20456;-49
2023/03/11 03:31:22;;;;;;;0.20;0.10;;;;;;;3.34;85.18;99369.56;4990491;28;20472;-49
2023/03/11 03:33:49;;;;;;;0.20;0.10;;;;;;;3.39;85.35;99370.38;4997212;28;20480;-49
2023/03/11 03:36:15;;;;;;;0.50;0.40;;;;;;;3.39;86.00;99378.25;5006217;28;20453;-49
2023/03/11 03:38:42;;;;;;;0.20;0.10;;;;;;;3.45;85.77;99386.06;5003297;28;20513;-49
2023/03/11 03:41:08;;;;;;;0.40;0.40;;;;;;;3.41;85.69;99378.22;4999148;28;20492;-49
2023/03/11 03:43:35;;;;;;;0.20;0.10;;;;;;;3.39;86.32;99380.88;5001936;28;20453;-50
2023/03/11 03:46:04;;;;;;;0.50;0.50;;;;;;;3.36;86.34;99383.56;4986144;28;20506;-49
2023/03/11 03:48:30;;;;;;;3.03;0.70;;;;;;;3.34;85.64;99380.09;4998844;28;20460;-49
2023/03/11 03:51:03;;;;;;;0.20;0.20;;;;;;;3.48;86.07;99379.88;5005330;28;20474;-49
2023/03/11 03:53:30;;;;;;;7.07;2.83;;;;;;;3.55;85.18;99382.38;4999131;28;21154;-49
2023/03/11 03:55:56;;;;;;;33.43;0.50;;;;;;;3.64;85.77;99386.63;5004602;28;20464;-49
2023/03/11 03:58:23;;;;;;;0.20;0.10;;;;;;;3.27;86.46;99392.41;5005858;28;21007;-49
2023/03/11 04:00:55;;;;;;;0.47;0.47;;;;;;;3.32;87.04;99386.25;4996590;28;20484;-49
2023/03/11 04:03:21;;;;;;;0.20;0.20;;;;;;;3.30;86.38;99393.28;4998898;28;20538;-50
2023/03/11 04:05:48;;;;;;;0.70;0.40;;;;;;;3.24;86.67;99397.72;5004435;28;20536;-50
2023/03/11 04:08:14;;;;;;;1.23;0.50;;;;;;;3.21;86.94;99399.53;5005279;28;20510;-49
2023/03/11 04:10:40;;;;;;;0.20;0.10;;;;;;;3.21;87.23;99403.00;5000257;28;20502;-49
2023/03/11 04:13:07;;;;;;;0.20;0.10;;;;;;;3.29;87.43;99405.56;4998539;28;20445;-49
2023/03/11 04:15:33;;;;;;;0.43;0.43;;;;;;;3.25;87.65;99404.69;5001516;28;20464;-49
2023/03/11 04:18:00;;;;;;;0.20;0.20;;;;;;;3.31;87.36;99406.38;4998723;28;20954;-49
2023/03/11 04:20:31;;;;;;;3.03;0.97;;;;;;;3.20;87.25;99411.78;5002621;28;20466;-49
2023/03/11 04:22:57;;;;;;;2.83;1.33;;;;;;;3.25;87.43;99407.31;5004161;28;20488;-49
2023/03/11 04:25:24;;;;;;;1.23;1.23;;;;;;;3.28;87.39;99402.03;5001879;28;20544;-49
2023/03/11 04:27:51;;;;;;;3.03;0.30;;;;;;;3.32;87.04;99407.25;4997932;28;20459;-50
2023/03/11 04:30:17;;;;;;;0.30;0.20;;;;;;;3.29;87.62;99408.19;5001947;28;21033;-50
2023/03/11 04:32:44;;;;;;;0.20;0.10;;;;;;;3.25;88.30;99403.84;5004488;28;20450;-50
2023/03/11 04:35:10;;;;;;;0.20;0.10;;;;;;;3.34;87.99;99400.22;5001958;28;20864;-50
2023/03/11 04:37:37;;;;;;;0.70;0.70;;;;;;;3.16;88.49;99399.59;4998690;28;20457;-49
2023/03/11 04:40:05;;;;;;;0.30;0.20;;;;;;;3.13;88.07;99407.47;4995154;28;20999;-49
2023/03/11 04:42:31;;;;;;;2.23;0.50;;;;;;;3.17;89.04;99405.72;5002298;28;20497;-48
2023/03/11 04:44:57;;;;;;;0.40;0.30;;;;;;;3.27;88.52;99410.78;4991962;28;20823;-50
2023/03/11 04:47:24;;;;;;;0.20;0.10;;;;;;;3.15;88.66;99404.84;5004823;28;20453;-48
2023/03/11 04:49:50;;;;;;;0.20;0.20;;;;;;;3.12;88.94;99416.25;4987756;28;20540;-49
2023/03/11 04:52:17;;;;;;;0.63;0.60;;;;;;;3.00;88.99;99420.78;4999081;28;20457;-49
2023/03/11 04:54:43;;;;;;;0.30;0.20;;;;;;;3.26;88.31;99416.94;4980764;28;20822;-50
2023/03/11 04:57:09;;;;;;;0.30;0.30;;;;;;;3.26;88.48;99427.44;5004708;28;21134;-50
2023/03/11 04:59:36;;;;;;;4.27;1.50;;;;;;;3.23;88.85;99424.84;5002692;28;20476;-50
2023/03/11 05:02:02;;;;;;;1.07;0.20;;;;;;;3.27;88.21;99431.81;4997645;28;20488;-50
2023/03/11 05:04:29;;;;;;;0.20;0.10;;;;;;;3.30;87.62;99430.91;5000186;28;20458;-50
2023/03/11 05:06:56;;;;;;;0.30;0.30;;;;;;;3.32;87.70;99429.13;5004535;28;20453;-50
2023/03/11 05:09:22;;;;;;;0.20;0.10;;;;;;;3.35;87.91;99428.22;4992707;28;20459;-49
2023/03/11 05:11:51;;;;;;;1.30;1.30;;;;;;;3.60;88.02;99434.88;5002706;28;20469;-50
2023/03/11 05:14:17;;;;;;;0.30;0.23;;;;;;;3.47;86.37;99436.81;5002567;28;20448;-50
2023/03/11 05:16:43;;;;;;;0.20;0.20;;;;;;;3.14;85.60;99439.84;4997894;28;20460;-49
2023/03/11 05:22:12;;;;;;;0.20;0.10;;;;;;;2.93;85.83;99441.00;5058427;28;20490;-50
2023/03/11 05:24:38;;;;;;;0.20;0.20;;;;;;;2.91;84.95;99441.00;4995693;28;20945;-50
2023/03/11 05:27:05;;;;;;;0.30;0.30;;;;;;;2.98;84.40;99447.03;5000913;28;20457;-50
2023/03/11 05:29:31;;;;;;;0.30;0.30;;;;;;;2.99;84.85;99438.28;5004225;28;20449;-50
2023/03/11 05:31:58;;;;;;;25.43;0.70;;;;;;;2.96;84.44;99446.19;4983746;28;20460;-49
2023/03/11 05:34:24;;;;;;;0.30;0.20;;;;;;;3.06;84.54;99446.97;4997495;28;20449;-49
2023/03/11 05:36:50;;;;;;;0.20;0.20;;;;;;;2.75;84.74;99456.94;5006827;28;20972;-49
2023/03/11 05:39:17;;;;;;;0.70;0.27;;;;;;;2.52;85.47;99457.19;4997181;28;20456;-56
2023/03/11 05:41:43;;;;;;;0.77;0.43;;;;;;;2.59;84.93;99458.84;4993155;28;20499;-50
2023/03/11 05:44:10;;;;;;;0.60;0.43;;;;;;;2.50;86.38;99457.19;4982141;28;20446;-50
2023/03/11 05:46:36;;;;;;;0.20;0.20;;;;;;;2.47;85.82;99454.59;4993876;28;20825;-50
2023/03/11 05:49:03;;;;;;;0.20;0.20;;;;;;;2.59;85.72;99453.59;4992401;28;20450;-50
2023/03/11 05:51:29;;;;;;;0.30;0.30;;;;;;;2.42;85.45;99455.50;4995371;28;21201;-50
2023/03/11 05:53:57;;;;;;;29.47;0.50;;;;;;;2.38;85.02;99465.16;5003972;28;20453;-50
2023/03/11 05:56:23;;;;;;;0.20;0.10;;;;;;;2.30;87.08;99474.84;5001232;28;20575;-49
2023/03/11 05:58:50;;;;;;;0.20;0.20;;;;;;;2.38;86.13;99462.53;4997129;28;20455;-49
2023/03/11 06:01:19;;;;;;;0.20;0.17;;;;;;;2.45;86.42;99468.59;4994473;28;20832;-49
2023/03/11 06:03:45;;;;;;;0.20;0.20;;;;;;;2.34;85.90;99473.97;4992886;28;20502;-50
2023/03/11 06:06:13;;;;;;;0.20;0.20;;;;;;;2.39;86.45;99472.16;4995010;28;20458;-50
2023/03/11 06:08:44;;;;;;;3.67;0.47;;;;;;;2.32;86.56;99468.69;5001291;28;20536;-50
2023/03/11 06:11:11;;;;;;;0.53;0.50;;;;;;;2.50;86.79;99479.94;4999101;28;20484;-50
2023/03/11 06:13:37;;;;;;;4.13;0.30;;;;;;;2.47;86.79;99485.19;4990936;28;20459;-50
2023/03/11 06:16:04;;;;;;;9.23;0.93;;;;;;;2.53;86.37;99485.13;4995794;28;20499;-49
2023/03/11 06:18:31;;;;;;;0.20;0.10;;;;;;;2.42;86.26;99486.97;4984144;28;20457;-50
2023/03/11 06:20:58;;;;;;;5.10;0.60;;;;;;;2.41;86.68;99496.59;4988837;28;20565;-50
2023/03/11 06:23:25;;;;;;;0.80;0.77;;;;;;;2.60;86.17;99495.56;5007942;28;20859;-50
2023/03/11 06:26:04;;;;;;;2.00;0.60;;;;;;;2.64;85.72;99505.16;4994718;28;20460;-50
2023/03/11 06:28:31;;;;;;;0.53;0.53;;;;;;;2.57;86.19;99513.06;4987552;28;20452;-49
2023/03/11 06:31:07;;;;;;;0.30;0.30;;;;;;;2.64;86.14;99520.03;4986474;28;20901;-50
2023/03/11 06:33:33;;;;;;;0.87;0.70;;;;;;;2.66;85.23;99516.50;4995594;28;20460;-50
2023/03/11 06:36:02;;;;;;;0.47;0.47;;;;;;;2.72;85.21;99514.69;5003230;28;20454;-50
2023/03/11 06:38:29;;;;;;;5.70;0.97;;;;;;;2.53;85.95;99527.09;4986626;28;20507;-50
2023/03/11 06:41:04;;;;;;;0.30;0.20;;;;;;;2.51;85.75;99528.88;5001132;28;20482;-50
2023/03/11 06:43:31;;;;;;;0.73;0.73;;;;;;;2.44;85.99;99533.28;4996443;28;20484;-50
2023/03/11 06:45:58;;;;;;;1.00;0.67;;;;;;;2.41;85.97;99541.19;4987704;28;20453;-50
2023/03/11 06:48:25;;;;;;;0.20;0.20;;;;;;;2.51;86.08;99536.75;5001819;28;20444;-50
2023/03/11 06:50:56;;;;;;;0.83;0.83;;;;;;;2.52;85.60;99546.34;4992548;28;20485;-50
2023/03/11 06:53:23;;;;;;;0.47;0.47;;;;;;;2.58;86.41;99546.28;4999375;28;20961;-48
2023/03/11 06:56:00;;;;;;;6.80;0.40;;;;;;;2.70;85.96;99556.69;4985978;28;20463;-49
2023/03/11 06:58:28;;;;;;;0.40;0.40;;;;;;;2.58;85.36;99555.03;4999070;28;20458;-49
2023/03/11 07:00:58;;;;;;;0.30;0.20;;;;;;;2.60;85.92;99571.66;4999296;28;20482;-49
2023/03/11 07:03:25;;;;;;;1.37;1.37;;;;;;;2.37;86.49;99573.56;4980386;28;20497;-48
2023/03/11 07:05:51;;;;;;;2.20;1.17;;;;;;;2.57;86.17;99571.66;5001293;28;21216;-49
2023/03/11 07:08:18;;;;;;;0.23;0.17;;;;;;;2.68;85.13;99571.56;4991611;28;20453;-49
2023/03/11 07:10:44;;;;;;;0.20;0.10;;;;;;;2.91;84.90;99574.00;5004864;28;20477;-49
2023/03/11 07:13:11;;;;;;;0.20;0.10;;;;;;;2.71;85.18;99582.03;5002871;28;20552;-48
2023/03/11 07:15:37;;;;;;;0.40;0.30;;;;;;;2.90;84.93;99580.13;4999313;28;20453;-49
2023/03/11 07:18:04;;;;;;;0.87;0.87;;;;;;;2.98;84.36;99579.16;4995480;28;20984;-49
2023/03/11 07:20:30;;;;;;;1.37;0.97;;;;;;;2.87;84.09;99580.13;4994987;28;20844;-49
2023/03/11 07:22:57;;;;;;;7.60;0.30;;;;;;;2.88;84.43;99585.41;5002447;28;20566;-48
2023/03/11 07:25:23;;;;;;;0.20;0.20;;;;;;;2.92;83.83;99592.34;4996197;28;20459;-51
2023/03/11 07:27:50;;;;;;;0.47;0.47;;;;;;;3.14;82.96;99587.75;5005170;28;20460;-49
2023/03/11 07:30:16;;;;;;;2.20;1.03;;;;;;;3.05;83.10;99601.00;5002130;28;20549;-48
2023/03/11 07:32:43;;;;;;;0.30;0.20;;;;;;;3.15;83.00;99597.41;4999560;28;20449;-49
2023/03/11 07:35:10;;;;;;;0.30;0.20;;;;;;;2.98;83.37;99602.78;5003178;28;20939;-48
2023/03/11 07:37:36;;;;;;;0.77;0.30;;;;;;;3.12;83.89;99602.66;5005014;28;20448;-49
2023/03/11 07:40:03;;;;;;;1.90;0.30;;;;;;;3.06;81.93;99605.34;5003145;28;20470;-49
2023/03/11 07:42:29;;;;;;;0.20;0.20;;;;;;;3.13;80.55;99617.50;4994591;28;20832;-49
2023/03/11 07:44:56;;;;;;;31.47;2.00;;;;;;;3.33;80.36;99619.09;4993037;28;20518;-49
2023/03/11 07:47:23;;;;;;;0.40;0.20;;;;;;;3.24;80.95;99626.16;5005748;28;20460;-49
2023/03/11 07:49:49;;;;;;;0.30;0.30;;;;;;;3.28;81.36;99632.25;5002467;28;20543;-49
2023/03/11 07:52:16;;;;;;;0.30;0.20;;;;;;;3.30;80.61;99630.50;4988664;28;20880;-49
2023/03/11 07:54:44;;;;;;;0.30;0.30;;;;;;;3.54;81.35;99637.25;4993490;28;20871;-49
2023/03/11 07:57:15;;;;;;;0.70;0.50;;;;;;;3.82;80.95;99646.56;4996159;28;20471;-49
2023/03/11 07:59:42;;;;;;;0.30;0.20;;;;;;;3.82;79.65;99643.94;4990064;28;20794;-49
2023/03/11 08:02:09;;;;;;;2.10;0.73;;;;;;;3.67;79.35;99651.13;5001459;28;20457;-49
2023/03/11 08:04:36;;;;;;;2.23;0.57;;;;;;;3.80;78.45;99656.22;5000350;28;20486;-49
2023/03/11 08:07:02;;;;;;;0.20;0.10;;;;;;;3.90;78.27;99651.72;4991042;28;20913;-49
2023/03/11 08:09:29;;;;;;;0.40;0.40;;;;;;;4.03;76.75;99648.06;5004229;28;20488;-49
2023/03/11 08:11:55;;;;;;;18.03;0.30;;;;;;;4.04;75.72;99648.94;4990850;28;20457;-49
2023/03/11 08:14:22;;;;;;;0.30;0.20;;;;;;;4.01;76.20;99662.13;5003748;28;20453;-49
2023/03/11 08:16:48;;;;;;;2.50;0.87;;;;;;;3.90;75.69;99662.25;4986700;28;20510;-49
2023/03/11 08:19:15;;;;;;;0.63;0.63;;;;;;;4.13;76.00;99662.84;4998189;28;20825;-49
2023/03/11 08:21:41;;;;;;;0.20;0.10;;;;;;;4.21;75.97;99669.75;4994452;28;20489;-48
2023/03/11 08:24:10;;;;;;;0.30;0.20;;;;;;;4.26;74.93;99671.44;4996263;28;20557;-48
2023/03/11 08:26:37;;;;;;;0.30;0.20;;;;;;;4.50;73.99;99672.84;4981140;28;20446;-49
2023/03/11 08:29:04;;;;;;;0.20;0.10;;;;;;;4.62;74.28;99671.81;5000064;28;20446;-49
2023/03/11 08:31:32;;;;;;;0.40;0.23;;;;;;;4.84;74.16;99680.28;5005239;28;20466;-49
2023/03/11 08:34:02;;;;;;;0.30;0.30;;;;;;;4.64;73.29;99684.06;5004880;28;20961;-49
2023/03/11 08:36:29;;;;;;;0.33;0.20;;;;;;;4.58;72.69;99680.66;5003592;28;20450;-49
2023/03/11 08:38:55;;;;;;;1.23;0.67;;;;;;;4.48;73.51;99693.06;5001103;28;20443;-49
2023/03/11 08:41:22;;;;;;;0.20;0.20;;;;;;;4.55;73.89;99691.22;4998376;28;20553;-49
2023/03/11 08:43:51;;;;;;;1.27;0.30;;;;;;;4.50;74.31;99691.28;4989248;28;20525;-49
2023/03/11 08:46:28;;;;;;;1.33;0.37;;;;;;;4.54;72.51;99689.50;4997831;28;20460;-49
2023/03/11 08:48:55;;;;;;;0.30;0.20;;;;;;;4.76;72.33;99698.81;4998098;28;20552;-49
2023/03/11 08:51:29;;;;;;;0.27;0.20;;;;;;;4.56;66.99;99691.22;4996869;28;21003;-49
2023/03/11 08:53:56;;;;;;;0.20;0.17;;;;;;;5.20;68.00;99700.75;5002601;28;20457;-49
2023/03/11 08:56:22;;;;;;;12.77;1.37;;;;;;;5.14;66.59;99692.97;5002432;28;20957;-48
2023/03/11 08:58:49;;;;;;;0.20;0.20;;;;;;;5.08;67.04;99672.00;5013235;28;20510;-49
2023/03/11 09:01:16;;;;;;;0.40;0.30;;;;;;;4.97;68.38;99690.59;5060238;28;20469;-49
2023/03/11 09:03:43;;;;;;;0.63;0.63;;;;;;;5.00;66.59;99687.91;5016856;28;20484;-49
2023/03/11 09:06:14;;;;;;;11.90;0.57;;;;;;;4.87;65.72;99682.84;5003551;28;20872;-49
2023/03/11 09:08:42;;;;;;;0.30;0.20;;;;;;;5.37;66.05;99692.59;5005348;28;20477;-49
2023/03/11 09:11:08;;;;;;;0.20;0.20;;;;;;;5.48;66.86;99695.00;5031336;28;20510;-49
2023/03/11 09:13:35;;;;;;;19.60;0.40;;;;;;;5.56;65.20;99698.38;5035310;28;20457;-49
2023/03/11 09:16:04;;;;;;;6.97;0.40;;;;;;;5.39;59.79;99708.38;4987388;28;20491;-49
2023/03/11 09:18:31;;;;;;;1.53;0.60;;;;;;;5.56;60.76;99703.66;5005130;28;20445;-49
2023/03/11 09:20:59;;;;;;;25.87;0.67;;;;;;;5.62;59.82;99700.94;5004403;28;20472;-50
2023/03/11 09:23:25;;;;;;;0.30;0.20;;;;;;;5.64;59.48;99701.78;4998352;28;20497;-50
2023/03/11 09:25:52;;;;;;;1.70;0.93;;;;;;;5.36;58.95;99696.13;4998866;28;20827;-49
2023/03/11 09:28:18;;;;;;;0.30;0.20;;;;;;;5.52;58.56;99702.00;5004998;28;20457;-49
2023/03/11 09:30:45;;;;;;;0.20;0.10;;;;;;;5.65;60.70;99701.75;5003973;28;20504;-50
2023/03/11 09:33:11;;;;;;;0.60;0.60;;;;;;;5.56;62.21;99701.91;4991862;28;20442;-49
2023/03/11 09:35:38;;;;;;;0.30;0.20;;;;;;;5.57;57.86;99693.09;5004107;28;20456;-49
2023/03/11 09:38:05;;;;;;;0.30;0.20;;;;;;;6.01;57.79;99695.81;4997661;28;20449;-49
2023/03/11 09:40:55;;;;;;;0.30;0.20;;;;;;;5.86;57.82;99689.03;4997925;28;21021;-49
2023/03/11 09:43:41;;;;;;;3.03;0.20;;;;;;;5.75;60.00;99701.56;4990964;28;20505;-49
2023/03/11 09:46:23;;;;;;;2.47;0.50;;;;;;;5.47;60.36;99698.53;4997758;28;20539;-48
2023/03/11 09:48:59;;;;;;;0.60;0.60;;;;;;;5.52;61.05;99704.63;4995612;28;20957;-49
2023/03/11 09:51:34;;;;;;;0.30;0.30;;;;;;;5.50;62.35;99699.38;4996947;28;20853;-49
2023/03/11 09:54:09;;;;;;;0.20;0.10;;;;;;;5.42;59.70;99700.41;5004320;28;20477;-49
2023/03/11 09:56:37;;;;;;;1.00;0.63;;;;;;;5.49;58.85;99709.97;5003233;28;20933;-49
2023/03/11 09:59:08;;;;;;;0.30;0.20;;;;;;;5.33;59.05;99704.06;4997359;28;20457;-49
2023/03/11 10:01:42;;;;;;;0.50;0.50;;;;;;;5.75;59.25;99704.19;4997243;28;20465;-49
2023/03/11 10:04:17;;;;;;;0.30;0.20;;;;;;;6.03;58.17;99708.09;5002390;28;20955;-49
2023/03/11 10:06:45;;;;;;;13.50;0.97;;;;;;;6.18;57.35;99714.84;5003873;28;20455;-49
2023/03/11 10:09:21;;;;;;;0.20;0.20;;;;;;;6.27;56.29;99713.75;4999760;28;20453;-49
2023/03/11 10:12:12;;;;;;;0.97;0.97;;;;;;;6.75;58.25;99714.50;4996907;28;20476;-49
2023/03/11 10:15:04;;;;;;;0.77;0.77;;;;;;;6.77;58.13;99713.56;4993164;28;20468;-49
2023/03/11 10:17:39;;;;;;;2.83;0.60;;;;;;;6.09;57.23;99721.16;5000084;28;20829;-49
2023/03/11 10:20:18;;;;;;;0.20;0.20;;;;;;;5.94;59.70;99724.97;5002740;28;20491;-49
2023/03/11 10:23:24;;;;;;;0.20;0.17;;;;;;;5.91;58.17;99726.78;5003727;28;20812;-49
2023/03/11 10:25:57;;;;;;;0.40;0.37;;;;;;;5.97;55.62;99736.34;4990976;28;20935;-49
2023/03/11 10:28:32;;;;;;;0.50;0.30;;;;;;;6.06;55.86;99737.06;4984792;28;20955;-49
2023/03/11 10:31:19;;;;;;;0.27;0.20;;;;;;;5.82;54.83;99734.84;4998080;28;20469;-50
2023/03/11 10:33:51;;;;;;;0.30;0.20;;;;;;;5.75;55.91;99731.44;4999901;28;20472;-50
2023/03/11 10:36:34;;;;;;;0.20;0.10;;;;;;;5.72;55.01;99726.22;5004007;28;20472;-49
2023/03/11 10:39:02;;;;;;;0.80;0.80;;;;;;;5.85;52.18;99730.38;5003699;28;20449;-49
2023/03/11 10:41:46;;;;;;;0.40;0.20;;;;;;;6.32;53.01;99720.72;4997418;28;20545;-50
2023/03/11 10:44:22;;;;;;;0.30;0.30;;;;;;;6.97;54.08;99728.06;4993348;28;20481;-50
2023/03/11 10:46:49;;;;;;;0.40;0.33;;;;;;;6.89;53.21;99725.63;5002584;28;20535;-50
2023/03/11 10:49:17;;;;;;;0.40;0.30;;;;;;;6.93;53.82;99729.94;4996547;28;20946;-50
2023/03/11 10:51:51;;;;;;;0.90;0.40;;;;;;;6.92;52.48;99729.97;4998035;28;20481;-50
2023/03/11 10:54:37;;;;;;;0.33;0.20;;;;;;;6.90;54.60;99730.00;4997098;28;20448;-49
2023/03/11 10:57:20;;;;;;;0.63;0.63;;;;;;;7.22;52.40;99736.31;4996416;28;20481;-50
2023/03/11 10:59:49;;;;;;;6.03;0.30;;;;;;;7.16;51.49;99749.69;4997892;28;20469;-50
2023/03/11 11:02:36;;;;;;;0.40;0.30;;;;;;;6.83;51.16;99752.16;5002704;28;20450;-50
2023/03/11 11:05:18;;;;;;;0.30;0.20;;;;;;;6.49;53.22;99752.03;5002796;28;20491;-49
2023/03/11 11:07:52;;;;;;;0.40;0.37;;;;;;;6.21;53.82;99746.44;5000727;28;20511;-49
2023/03/11 11:10:25;;;;;;;0.30;0.30;;;;;;;6.69;53.10;99752.47;4996551;28;20841;-49
2023/03/11 11:12:55;;;;;;;0.20;0.17;;;;;;;6.39;54.04;99751.34;4997476;28;21010;-49
2023/03/11 11:15:31;;;;;;;0.33;0.23;;;;;;;6.64;54.28;99751.69;5003334;28;20457;-50
2023/03/11 11:18:01;;;;;;;0.83;0.47;;;;;;;6.53;53.21;99748.41;5002873;28;20471;-50
2023/03/11 11:20:29;;;;;;;0.30;0.20;;;;;;;6.87;52.71;99748.56;4997844;28;21062;-50
2023/03/11 11:23:02;;;;;;;0.30;0.20;;;;;;;7.00;53.05;99757.09;4995176;28;20512;-50
2023/03/11 11:25:33;;;;;;;0.63;0.57;;;;;;;6.75;51.85;99760.28;4999411;28;20454;-50
2023/03/11 11:28:21;;;;;;;0.30;0.30;;;;;;;6.65;52.64;99749.94;5001082;28;20533;-49
2023/03/11 11:30:54;;;;;;;0.40;0.30;;;;;;;6.89;51.68;99752.03;5002438;28;20491;-49
2023/03/11 11:33:29;;;;;;;0.30;0.20;;;;;;;7.15;50.78;99746.16;4997235;28;20487;-50
2023/03/11 11:36:00;;;;;;;0.60;0.30;;;;;;;6.75;52.90;99747.06;4980071;28;21009;-49
2023/03/11 11:38:28;;;;;;;0.50;0.40;;;;;;;7.01;50.65;99749.13;4999341;28;20449;-49
2023/03/11 11:40:58;;;;;;;0.30;0.20;;;;;;;6.97;51.96;99742.16;4995691;28;20473;-49
2023/03/11 11:43:40;;;;;;;0.20;0.20;;;;;;;7.32;51.77;99743.13;5000453;28;20493;-49
2023/03/11 11:46:17;;;;;;;0.77;0.77;;;;;;;6.82;51.24;99737.22;4998604;28;20472;-49
2023/03/11 11:48:47;;;;;;;0.30;0.30;;;;;;;6.71;51.85;99733.94;4998750;28;20827;-49
2023/03/11 11:51:27;;;;;;;0.30;0.20;;;;;;;7.22;51.15;99744.22;5001622;28;20501;-49
2023/03/11 11:54:22;;;;;;;0.20;0.20;;;;;;;7.28;48.53;99736.19;4992168;28;20853;-49